• Join FlightAware (Why Join?)
  • Login
  • US Flag 
09:48AM EDT


 

Airport Tracker/Info


-or-


 

Live Flight TrackerFlight Track Log ✈ N23139 ✈ 24-Apr-2013 ✈ KMSP - KIAH

Flight Track Log - Related Links

Times and Time Zones

All times are in EDT time to prevent confusion due to time zone crossing. See the N23139 flight status page for this flight to view local times or setup timezone preferences in your user account.

Time Position Orientation Groundspeed Altitude Reporting Facility
EDT Latitude Longitude Course Direction KTS MPH feet Rate Location/Type
06:39PM 44.8881 -93.2697 216° Southwest 172 198 2,700  Level FAA TRACON SMA TRACON (SMA)
06:40PM 44.8844 -93.2986 260° West 191 220 3,600 2,880 Climbing FAA TRACON SMA TRACON (SMA)
06:40PM 44.8817 -93.3242 261° West 209 241 4,600 2,760 Climbing FAA TRACON SMA TRACON (SMA)
06:40PM 44.8789 -93.3511 262° West 221 254 5,400 2,460 Climbing FAA TRACON SMA TRACON (SMA)
06:41PM 44.8767 -93.3864 265° West 234 269 6,300 1,560 Climbing FAA TRACON SMA TRACON (SMA)
06:41PM 44.8725 -93.4144 258° West 241 277 6,500 600 Climbing FAA TRACON SMA TRACON (SMA)
06:41PM 44.8581 -93.4339 224° Southwest 248 285 6,700 600 Climbing FAA TRACON SMA TRACON (SMA)
06:41PM 44.8325 -93.4411 191° South 246 283 6,900 300 Climbing FAA TRACON SMA TRACON (SMA)
06:42PM 44.4975 -93.2890 208° Southwest  Level Estimated
06:42PM 44.8117 -93.4453 188° South 246 283 6,900  Level FAA TRACON SMA TRACON (SMA)
06:42PM 44.7903 -93.4497 188° South 250 288 6,900 600 Level FAA TRACON SMA TRACON (SMA)
06:43PM 44.4014 -93.3057 205° Southwest  Level Estimated
06:43PM 44.7631 -93.4556 189° South 253 291 7,300  Level FAA TRACON SMA TRACON (SMA)
06:43PM 44.7417 -93.4625 193° South 259 298 8,000 3,060 Climbing FAA TRACON SMA TRACON (SMA)
06:43PM 44.7211 -93.4744 202° Southwest 259 298 9,300 4,080 Climbing FAA TRACON SMA TRACON (SMA)
06:44PM 44.3053 -93.3223 216° Southwest  Level Estimated
06:44PM 44.6958 -93.4869 199° South 251 289 10,800  Level FAA TRACON SMA TRACON (SMA)
06:44PM 44.6758 -93.4972 200° South 249 287 11,500 1,620 Climbing FAA TRACON SMA TRACON (SMA)
06:44PM 44.6547 -93.5083 201° Southwest 257 296 11,900 1,380 Climbing FAA TRACON SMA TRACON (SMA)
06:44PM 44.6275 -93.5278 207° Southwest 279 321 12,400 1,500 Climbing FAA TRACON SMA TRACON (SMA)
06:45PM 44.6053 -93.5450 209° Southwest 294 338 12,900 1,860 Climbing FAA TRACON SMA TRACON (SMA)
06:45PM 44.5822 -93.5606 206° Southwest 301 346 13,700 2,580 Climbing FAA TRACON SMA TRACON (SMA)
06:46PM 44.5536 -93.5822 208° Southwest 302 348 14,700 2,760 Climbing FAA TRACON SMA TRACON (SMA)
06:46PM 44.5311 -93.5997 209° Southwest 302 348 15,500 2,580 Climbing FAA TRACON SMA TRACON (SMA)
06:47PM 44.4797 -93.6375 208° Southwest 301 346 17,300 2,640 Climbing FAA TRACON SMA TRACON (SMA)
06:47PM 44.4572 -93.6539 207° Southwest 296 341 18,200 2,520 Climbing FAA TRACON SMA TRACON (SMA)
06:47PM 44.4353 -93.6711 209° Southwest 295 339 19,000 2,760 Climbing FAA TRACON SMA TRACON (SMA)
06:47PM 44.4075 -93.6919 208° Southwest 294 338 20,000 2,760 Climbing FAA TRACON SMA TRACON (SMA)
06:48PM 44.3858 -93.7078 208° Southwest 290 334 20,800 2,340 Climbing FAA TRACON SMA TRACON (SMA)
06:48PM 44.3639 -93.7236 207° Southwest 288 331 21,600 2,460 Climbing FAA TRACON SMA TRACON (SMA)
06:49PM 44.3364 -93.7439 208° Southwest 287 330 22,500 2,280 Climbing FAA TRACON SMA TRACON (SMA)
06:49PM 44.3144 -93.7592 206° Southwest 288 331 23,100 1,500 Climbing FAA TRACON SMA TRACON (SMA)
06:49PM 44.2928 -93.7769 210° Southwest 293 337 23,500 1,440 Climbing FAA TRACON SMA TRACON (SMA)
06:50PM 44.2633 -93.7978 207° Southwest 305 351 24,100 1,560 Climbing FAA TRACON SMA TRACON (SMA)
06:50PM 44.2400 -93.8167 210° Southwest 312 359 24,600 1,320 Climbing FAA TRACON SMA TRACON (SMA)
06:50PM 44.2156 -93.8344 208° Southwest 319 367 25,000 1,500 Climbing FAA TRACON SMA TRACON (SMA)
06:50PM 44.1850 -93.8575 208° Southwest 326 375 25,600 1,620 Climbing FAA TRACON SMA TRACON (SMA)
06:51PM 44.1583 -93.8744 205° Southwest 334 384 26,100 1,560 Climbing FAA TRACON SMA TRACON (SMA)
06:51PM 44.1333 -93.8942 210° Southwest 336 387 26,700 2,100 Climbing FAA TRACON SMA TRACON (SMA)
06:52PM 44.1017 -93.9172 208° Southwest 336 387 27,500 2,100 Climbing FAA TRACON SMA TRACON (SMA)
06:52PM 44.0769 -93.9361 209° Southwest 333 383 28,100 1,800 Climbing FAA TRACON SMA TRACON (SMA)
06:52PM 44.0517 -93.9553 209° Southwest 334 384 28,700 1,140 Climbing FAA TRACON SMA TRACON (SMA)
06:53PM 44.0389 -93.9639 206° Southwest 334 384 28,900 1,680 Climbing FAA TRACON SMA TRACON (SMA)
06:53PM 43.9783 -94.0017 204° Southwest 334 384 30,300 1,860 Climbing Minneapolis Center
06:54PM 43.8972 -94.0606 208° Southwest 331 381 32,000 1,680 Climbing Minneapolis Center
06:55PM 43.8181 -94.1186 208° Southwest 324 373 33,800 1,380 Climbing Minneapolis Center
06:56PM 43.7406 -94.1725 207° Southwest 316 364 34,900 840 Climbing Minneapolis Center
06:57PM 43.6444 -94.2444 208° Southwest 325 374 35,600 480 Climbing Minneapolis Center
06:58PM 43.5586 -94.3114 209° Southwest 340 391 36,000 180 Climbing Minneapolis Center
06:59PM 43.4683 -94.3800 209° Southwest 361 415 36,000  Level Minneapolis Center
07:00PM 43.3722 -94.4564 210° Southwest 388 447 36,000  Level Minneapolis Center
07:01PM 43.2675 -94.5306 207° Southwest 413 475 36,000  Level Minneapolis Center
07:02PM 43.1556 -94.5981 204° Southwest 434 499 36,000  Level Minneapolis Center
07:03PM 43.0239 -94.6756 203° Southwest 431 496 36,000  Level Minneapolis Center
07:04PM 42.9167 -94.7386 203° Southwest 423 487 36,000  Level Minneapolis Center
07:06PM 42.8097 -94.8025 204° Southwest 420 483 36,000  Level Minneapolis Center
07:07PM 42.6956 -94.8692 203° Southwest 419 482 36,000  Level Minneapolis Center
07:08PM 42.5889 -94.9319 203° Southwest 419 482 36,000  Level Minneapolis Center
07:09PM 42.4819 -94.9928 203° Southwest 418 481 36,000  Level Minneapolis Center
07:10PM 42.3733 -95.0556 203° Southwest 422 486 36,000  Level Minneapolis Center
07:11PM 42.2614 -95.1214 204° Southwest 434 499 36,000  Level Minneapolis Center
07:12PM 42.1483 -95.1836 202° Southwest 438 504 36,000  Level Minneapolis Center
07:13PM 42.0158 -95.2597 203° Southwest 431 496 36,000  Level Minneapolis Center
07:14PM 41.9058 -95.3228 203° Southwest 428 493 36,000  Level Minneapolis Center
07:15PM 41.7969 -95.3833 203° Southwest 425 489 36,000  Level Minneapolis Center
07:16PM 41.6831 -95.4292 197° South 426 490 36,000  Level Minneapolis Center
07:17PM 41.5639 -95.4611 191° South 432 497 36,000  Level Minneapolis Center
07:18PM 41.4428 -95.4867 189° South 435 501 36,000  Level Minneapolis Center
07:19PM 41.3192 -95.4972 184° South 439 505 36,000  Level Minneapolis Center
07:20PM 41.1925 -95.4875 177° South 449 517 36,000  Level Minneapolis Center
07:21PM 41.0414 -95.4758 177° South 450 518 36,000  Level Minneapolis Center
07:22PM 40.9156 -95.4669 177° South 451 519 36,000  Level Minneapolis Center
07:23PM 40.7903 -95.4567 176° South 450 518 36,000  Level Minneapolis Center
07:24PM 40.6664 -95.4436 175° South 448 516 36,000  Level Minneapolis Center
07:25PM 40.5450 -95.4508 183° South 440 506 36,000  Level Minneapolis Center
07:26PM 40.4281 -95.4772 190° South 430 495 36,000  Level Minneapolis Center
07:27PM 40.2878 -95.5067 189° South 425 489 36,000  Level Minneapolis Center
07:28PM 40.1719 -95.5311 189° South 421 484 36,000  Level Minneapolis Center
07:29PM 40.0575 -95.5556 189° South 419 482 36,000  Level Minneapolis Center
07:30PM 39.9433 -95.5781 189° South 416 479 36,000  Level Minneapolis Center
07:31PM 39.8278 -95.6031 189° South 418 481 36,000  Level Minneapolis Center
07:32PM 39.7825 -95.6094 186° South 420 483 36,000  Level Kansas City Center
07:33PM 39.6517 -95.6367 189° South 427 491 36,000  Level Kansas City Center
07:34PM 39.5392 -95.6592 189° South 429 494 36,000  Level Kansas City Center
07:35PM 39.4075 -95.6864 189° South 430 495 36,000  Level Kansas City Center
07:36PM 39.2958 -95.7097 189° South 429 494 36,000  Level Kansas City Center
07:37PM 39.1658 -95.7361 189° South 426 490 36,000  Level Kansas City Center
07:38PM 39.0542 -95.7583 189° South 426 490 36,000  Level Kansas City Center
07:39PM 38.9289 -95.7836 189° South 412 474 36,000  Level Kansas City Center
07:40PM 38.8217 -95.8072 190° South 412 474 36,000  Level Kansas City Center
07:41PM 38.6961 -95.8317 189° South 409 471 36,000  Level Kansas City Center
07:42PM 38.5889 -95.8539 189° South 408 470 36,000  Level Kansas City Center
07:43PM 38.4653 -95.8789 189° South 405 466 36,000  Level Kansas City Center
07:44PM 38.3583 -95.8983 188° South 404 465 36,000  Level Kansas City Center
07:45PM 38.2519 -95.9189 189° South 403 464 36,000  Level Kansas City Center
07:46PM 38.1283 -95.9439 189° South 403 464 36,000  Level Kansas City Center
07:47PM 38.0222 -95.9642 189° South 403 464 36,000  Level Kansas City Center
07:48PM 37.8989 -95.9889 189° South 403 464 36,000  Level Kansas City Center
07:49PM 37.7886 -96.0114 189° South 401 461 36,000  Level Kansas City Center
07:50PM 37.6792 -96.0317 188° South 397 457 36,000  Level Kansas City Center
07:51PM 37.5686 -96.0517 188° South 399 459 36,000  Level Kansas City Center
07:52PM 37.4578 -96.0739 189° South 401 461 36,000  Level Kansas City Center
07:53PM 37.3469 -96.0950 189° South 403 464 36,000  Level Kansas City Center
07:54PM 37.2131 -96.1194 188° South 404 465 36,000  Level Kansas City Center
07:55PM 37.0997 -96.1425 189° South 409 471 36,000  Level Kansas City Center
07:57PM 36.9867 -96.1636 188° South 410 472 36,000  Level Kansas City Center
07:58PM 36.8742 -96.1842 188° South 410 472 36,000  Level Kansas City Center
07:59PM 36.7611 -96.2061 189° South 411 473 36,000  Level Kansas City Center
08:00PM 36.6492 -96.2272 189° South 410 472 36,000  Level Kansas City Center
08:01PM 36.5133 -96.2533 189° South 411 473 36,000  Level Kansas City Center
08:02PM 36.3989 -96.2744 188° South 415 478 36,000  Level Kansas City Center
08:03PM 36.2842 -96.2961 189° South 418 481 36,000  Level Kansas City Center
08:04PM 36.1694 -96.3172 188° South 418 481 36,000  Level Kansas City Center
08:05PM 36.0539 -96.3394 189° South 419 482 36,000  Level Kansas City Center
08:06PM 35.9386 -96.3603 188° South 419 482 36,000  Level Kansas City Center
08:07PM 35.8222 -96.3819 189° South 420 483 36,000  Level Kansas City Center
08:08PM 35.7058 -96.4019 188° South 420 483 36,000  Level Kansas City Center
08:08PM 35.6131 -96.4206 189° South 427 491 36,000  Level Fort Worth Center
08:09PM 35.4964 -96.4422 189° South 427 491 36,000  Level Fort Worth Center
08:10PM 35.3797 -96.4614 188° South 427 491 36,000  Level Fort Worth Center
08:11PM 35.2611 -96.4831 188° South 427 491 36,000  Level Fort Worth Center
08:12PM 35.1589 -96.5019 189° South 427 491 36,000  Level Fort Worth Center
08:13PM 35.0403 -96.5233 188° South 427 491 36,000  Level Fort Worth Center
08:14PM 34.9236 -96.5450 189° South 427 491 36,000  Level Fort Worth Center
08:15PM 34.8069 -96.5689 190° South 427 491 36,000  Level Fort Worth Center
08:16PM 34.6903 -96.5903 189° South 427 491 36,000  Level Fort Worth Center
08:17PM 34.5736 -96.6089 187° South 427 491 36,000  Level Fort Worth Center
08:18PM 34.4567 -96.6303 189° South 427 491 36,000  Level Fort Worth Center
08:19PM 34.3442 -96.6514 189° South 427 491 36,000  Level Fort Worth Center
08:20PM 34.2297 -96.6725 189° South 427 491 36,000  Level Fort Worth Center
08:21PM 34.1150 -96.6936 189° South 427 491 36,000  Level Fort Worth Center
08:22PM 33.9961 -96.7144 188° South 405 466 36,000  Level Fort Worth Center
08:23PM 33.8772 -96.7306 186° South 419 482 36,000  Level Fort Worth Center
08:24PM 33.7606 -96.7539 189° South 426 490 36,000  Level Fort Worth Center
08:25PM 33.6436 -96.7747 188° South 426 490 36,000  Level Fort Worth Center
08:26PM 33.5394 -96.7928 188° South 426 490 36,000  Level Fort Worth Center
08:27PM 33.4228 -96.8111 187° South 432 497 36,000  Level Fort Worth Center
08:28PM 33.3017 -96.8194 183° South 432 497 36,000  Level Fort Worth Center
08:29PM 33.1783 -96.7956 171° South 442 509 36,000  Level Fort Worth Center
08:30PM 33.0531 -96.7739 172° South 459 528 36,000  Level Fort Worth Center
08:31PM 32.9153 -96.7528 173° South 459 528 36,000  Level Fort Worth Center
08:32PM 32.7919 -96.7289 171° South 459 528 36,000  Level Fort Worth Center
08:33PM 32.6664 -96.7100 173° South 459 528 36,000  Level Fort Worth Center
08:34PM 32.5433 -96.6864 171° South 459 528 36,000 -540 Level Fort Worth Center
08:36PM 32.3642 -96.6572 172° South 442 509 34,700 -960 Descending Houston Center
08:37PM 32.2389 -96.6372 172° South 446 513 33,600 -1,140 Descending Houston Center
08:38PM 32.1139 -96.6156 172° South 446 513 32,400 -1,080 Descending Houston Center
08:39PM 31.9883 -96.5931 171° South 451 519 31,400 -720 Descending Houston Center
08:40PM 31.8600 -96.5717 172° South 456 525 31,000 -240 Descending Houston Center
08:41PM 31.7333 -96.5506 172° South 453 521 31,000  Level Houston Center
08:42PM 31.6067 -96.5289 172° South 453 521 31,000 -300 Level Houston Center
08:43PM 31.4778 -96.4953 167° South 468 539 30,500 -1,080 Descending Houston Center
08:44PM 31.3392 -96.4108 153° Southeast 477 549 28,800 -1,860 Descending Houston Center
08:45PM 31.2164 -96.3336 152° Southeast 491 565 26,700 -2,220 Descending Houston Center
08:46PM 31.0956 -96.2581 152° Southeast 485 558 24,300 -2,160 Descending Houston Center
08:47PM 30.9808 -96.1872 152° Southeast 466 536 22,300 -2,040 Descending Houston Center
08:48PM 30.8692 -96.1178 152° Southeast 452 520 20,200 -2,220 Descending Houston Center
08:49PM 30.7744 -96.0614 153° Southeast 428 493 18,300 -2,100 Descending Houston Center
08:50PM 30.6667 -95.9939 152° Southeast 424 488 16,000 -2,400 Descending Houston Center
08:51PM 30.5975 -95.9531 153° Southeast 413 475 14,200 -2,940 Descending Houston Center
08:51PM 30.5461 -95.9203 151° Southeast 410 472 13,000 -1,800 Descending Houston Center
08:52PM 30.4975 -95.8894 151° Southeast 388 447 12,400 -1,020 Descending Houston Center
08:52PM 30.4536 -95.8622 152° Southeast 385 443 12,000 -420 Descending Houston Center
08:53PM 30.4139 -95.8217 139° Southeast 369 425 12,000  Level Houston Center
08:53PM 30.3775 -95.7831 138° Southeast 367 422 12,000 -360 Level Houston Center
08:54PM 30.3422 -95.7475 139° Southeast 359 413 11,700 -1,020 Descending Houston Center
08:54PM 30.3061 -95.7094 138° Southeast 349 402 11,000 -1,320 Descending Houston Center
08:55PM 30.2775 -95.6803 139° Southeast 307 353 10,400 -1,620 Descending Houston Center
08:55PM 30.2458 -95.6458 137° Southeast 300 345 9,400 -1,920 Descending Houston Center
08:56PM 30.2150 -95.6150 139° Southeast 292 336 8,500 -1,860 Descending Houston Center
08:56PM 30.1853 -95.5828 137° Southeast 293 337 7,500 -1,800 Descending Houston Center
08:57PM 30.1550 -95.5522 139° Southeast 288 331 6,700 -1,380 Descending Houston Center
08:58PM 30.1264 -95.5225 138° Southeast 286 329 6,100 -720 Descending Houston Center
08:58PM 30.1089 -95.4828 117° Southeast 287 330 6,000 -120 Descending Houston Center
08:59PM 30.1064 -95.4389 94° East 283 326 6,000  Level Houston Center
08:59PM 30.1047 -95.3914 92° East 283 326 6,000  Level Houston Center
09:00PM 30.1056 -95.3478 89° East 283 326 6,000  Level Houston Center
09:00PM 30.1053 -95.3069 90° East 279 321 6,000 -240 Level Houston Center
09:01PM 30.1064 -95.2406 89° East 278 320 5,800 -720 Descending Houston Center
09:01PM 30.1058 -95.2200 92° East 264 304 5,300 -2,040 Descending Houston Center
09:02PM 30.0983 -95.1606 98° East 259 298 3,700 -1,680 Descending Houston Center
09:03PM 30.0322 -95.1503 172° South 247 284 2,300 -1,380 Descending Houston Center